Westhaven, California
Current Conditions -  °F | °C
As of 1:53 PM on Sunday 25 Jan 2015 (Local Time) from KACV Reporting Station
Clear Clear  
Wind Chill: 65°   Ceiling: Unl
Heat Index: 65°   Visibility: 10mi
Dew Point: 47°   Wind: 5mph
Humidity: 52%   Direction: 340°NNW
Pressure: 30.02"   Gusts: NA
Location:  41.1412°N, 124.024°W
Report Text: KACV 252153Z AUTO 34004KT 10SM CLR 18/08 A3002 RMK AO2 SLP170 T01830083
Loading
Personal Weather Stations






























Interactive Weather Map New forecast layout! Learn more

10-Day Weather Forecast

Advertisements
Track Severe Weather on mobile